createdAt,value
2023-02-05T00:00:29.532Z,1.60
2023-02-05T00:01:29.509Z,1.71
2023-02-05T00:02:30.669Z,1.63
2023-02-05T00:03:29.544Z,1.58
2023-02-05T00:04:29.499Z,1.67
2023-02-05T00:05:29.428Z,1.63
2023-02-05T00:06:30.429Z,1.63
2023-02-05T00:07:29.421Z,1.56
2023-02-05T00:08:29.381Z,1.55
2023-02-05T00:09:29.391Z,1.66
2023-02-05T00:10:29.343Z,1.52
2023-02-05T00:11:29.323Z,1.41
2023-02-05T00:12:29.342Z,1.52
2023-02-05T00:13:29.291Z,1.49
2023-02-05T00:14:29.311Z,1.45
2023-02-05T00:15:29.258Z,1.45
2023-02-05T00:16:29.246Z,1.52
2023-02-05T00:17:29.247Z,1.45
2023-02-05T00:18:29.198Z,1.44
2023-02-05T00:19:29.179Z,1.42
2023-02-05T00:20:29.167Z,1.42
2023-02-05T00:21:29.142Z,1.37
2023-02-05T00:22:29.155Z,1.48
2023-02-05T00:23:29.110Z,1.38
2023-02-05T00:24:29.087Z,1.30
2023-02-05T00:25:29.098Z,1.23
2023-02-05T00:26:29.050Z,1.40
2023-02-05T00:27:29.033Z,1.35
2023-02-05T00:28:29.023Z,1.34
2023-02-05T00:29:28.997Z,1.38
2023-02-05T00:30:29.043Z,1.26
2023-02-05T00:31:29.023Z,1.17
2023-02-05T00:32:28.959Z,1.34
2023-02-05T00:33:28.923Z,1.20
2023-02-05T00:34:28.914Z,1.22
2023-02-05T00:35:28.914Z,1.32
2023-02-05T00:36:29.877Z,1.32
2023-02-05T00:37:28.856Z,1.13
2023-02-05T00:38:28.859Z,1.28
2023-02-05T00:39:28.819Z,1.30
2023-02-05T00:40:28.837Z,1.23
2023-02-05T00:41:28.788Z,1.35
2023-02-05T00:42:28.781Z,1.37
2023-02-05T00:43:28.755Z,1.17
2023-02-05T00:44:28.731Z,1.26
2023-02-05T00:45:28.750Z,1.23
2023-02-05T00:46:28.738Z,1.30
2023-02-05T00:47:28.685Z,1.32
2023-02-05T00:48:28.663Z,1.34
2023-02-05T00:49:28.643Z,1.41
2023-02-05T00:50:28.660Z,1.52
2023-02-05T00:51:28.608Z,1.34
2023-02-05T00:52:28.642Z,1.45
2023-02-05T00:53:28.575Z,1.44
2023-02-05T00:54:28.556Z,1.45
2023-02-05T00:55:28.568Z,1.55
2023-02-05T00:56:28.522Z,1.50
2023-02-05T00:57:28.522Z,1.62
2023-02-05T00:58:28.487Z,1.58
2023-02-05T00:59:28.469Z,1.60
2023-02-05T01:00:28.490Z,1.49
2023-02-05T01:01:28.501Z,1.52
2023-02-05T01:02:28.471Z,1.50
2023-02-05T01:03:28.404Z,1.48
2023-02-05T01:04:28.381Z,1.45
2023-02-05T01:05:28.398Z,1.45
2023-02-05T01:06:28.357Z,1.42
2023-02-05T01:07:28.359Z,1.41
2023-02-05T01:08:28.311Z,1.44
2023-02-05T01:09:28.298Z,1.41
2023-02-05T01:10:28.278Z,1.40
2023-02-05T01:11:28.259Z,1.38
2023-02-05T01:12:28.267Z,1.42
2023-02-05T01:13:28.241Z,1.35
2023-02-05T01:14:28.206Z,1.37
2023-02-05T01:15:28.214Z,1.31
2023-02-05T01:16:28.171Z,1.35
2023-02-05T01:17:28.149Z,1.37
2023-02-05T01:18:28.130Z,1.28
2023-02-05T01:19:28.918Z,1.23
2023-02-05T01:20:28.129Z,1.35
2023-02-05T01:21:28.076Z,1.30
2023-02-05T01:22:28.060Z,1.37
2023-02-05T01:23:28.066Z,1.42
2023-02-05T01:24:28.017Z,1.23
2023-02-05T01:25:28.033Z,1.17
2023-02-05T01:26:27.983Z,1.20
2023-02-05T01:27:27.971Z,1.26
2023-02-05T01:28:27.943Z,1.30
2023-02-05T01:29:29.402Z,1.24
2023-02-05T01:30:28.940Z,1.23
2023-02-05T01:31:27.958Z,1.32
2023-02-05T01:32:27.876Z,1.20
2023-02-05T01:33:27.854Z,1.17
2023-02-05T01:34:27.839Z,1.10
2023-02-05T01:35:27.849Z,1.14
2023-02-05T01:36:27.798Z,1.12
2023-02-05T01:37:27.782Z,1.10
2023-02-05T01:38:27.759Z,1.04
2023-02-05T01:39:27.739Z,1.02
2023-02-05T01:40:27.754Z,0.99
2023-02-05T01:41:27.713Z,1.05
2023-02-05T01:42:27.687Z,1.06
2023-02-05T01:43:27.664Z,1.08
2023-02-05T01:44:27.647Z,1.10
2023-02-05T01:45:28.450Z,0.99
2023-02-05T01:46:27.658Z,1.05
2023-02-05T01:47:27.591Z,1.04
2023-02-05T01:48:27.583Z,1.13
2023-02-05T01:49:27.549Z,1.08
2023-02-05T01:50:27.561Z,1.13
2023-02-05T01:51:27.512Z,1.08
2023-02-05T01:52:27.493Z,1.08
2023-02-05T01:53:27.482Z,1.13
2023-02-05T01:54:27.461Z,1.13
2023-02-05T01:55:27.476Z,1.17
2023-02-05T01:56:27.421Z,1.28
2023-02-05T01:57:27.405Z,1.22
2023-02-05T01:58:27.391Z,1.26
2023-02-05T01:59:27.371Z,1.24
2023-02-05T02:00:27.382Z,1.31
2023-02-05T02:01:27.430Z,1.30
2023-02-05T02:02:27.314Z,1.24
2023-02-05T02:03:27.302Z,1.26
2023-02-05T02:04:27.278Z,1.20
2023-02-05T02:05:27.354Z,1.32
2023-02-05T02:06:27.244Z,1.31
2023-02-05T02:07:27.221Z,1.32
2023-02-05T02:08:27.210Z,1.31
2023-02-05T02:09:27.180Z,1.32
2023-02-05T02:10:27.200Z,1.35
2023-02-05T02:11:27.144Z,1.32
2023-02-05T02:12:27.135Z,1.32
2023-02-05T02:13:27.227Z,1.35
2023-02-05T02:14:27.093Z,1.34
2023-02-05T02:15:27.132Z,1.37
2023-02-05T02:16:27.050Z,1.38
2023-02-05T02:17:27.037Z,1.40
2023-02-05T02:18:27.023Z,1.28
2023-02-05T02:19:27.007Z,1.40
2023-02-05T02:20:26.984Z,1.35
2023-02-05T02:21:26.992Z,1.22
2023-02-05T02:22:26.949Z,1.35
2023-02-05T02:23:26.929Z,1.40
2023-02-05T02:24:26.913Z,1.44
2023-02-05T02:25:26.888Z,1.38
2023-02-05T02:26:26.898Z,1.24
2023-02-05T02:27:26.854Z,1.26
2023-02-05T02:28:26.835Z,1.34
2023-02-05T02:29:26.822Z,1.34
2023-02-05T02:30:26.882Z,1.12
2023-02-05T02:31:26.847Z,1.22
2023-02-05T02:32:26.755Z,1.22
2023-02-05T02:33:27.749Z,1.16
2023-02-05T02:34:26.729Z,1.13
2023-02-05T02:35:26.705Z,1.05
2023-02-05T02:36:26.721Z,1.12
2023-02-05T02:37:26.675Z,1.05
2023-02-05T02:38:26.660Z,1.12
2023-02-05T02:39:26.637Z,1.05
2023-02-05T02:40:26.614Z,1.13
2023-02-05T02:41:26.637Z,1.08
2023-02-05T02:42:27.353Z,1.22
2023-02-05T02:43:26.642Z,1.06
2023-02-05T02:44:26.545Z,1.22
2023-02-05T02:45:27.311Z,1.20
2023-02-05T02:46:26.564Z,1.22
2023-02-05T02:47:26.496Z,1.10
2023-02-05T02:48:27.317Z,1.08
2023-02-05T02:49:27.314Z,1.12
2023-02-05T02:50:26.444Z,1.12
2023-02-05T02:51:27.314Z,1.14
2023-02-05T02:52:27.288Z,1.20
2023-02-05T02:53:26.412Z,1.20
2023-02-05T02:54:27.370Z,1.22
2023-02-05T02:55:26.353Z,1.19
2023-02-05T02:56:26.363Z,1.17
2023-02-05T02:57:26.319Z,1.24
2023-02-05T02:58:26.303Z,1.23
2023-02-05T02:59:26.289Z,1.26
2023-02-05T03:00:26.275Z,1.28
2023-02-05T03:01:26.270Z,1.24
2023-02-05T03:02:27.227Z,1.28
2023-02-05T03:03:26.271Z,1.28
2023-02-05T03:04:26.187Z,1.19
2023-02-05T03:05:26.170Z,1.17
2023-02-05T03:06:26.178Z,1.17
2023-02-05T03:07:26.138Z,1.17
2023-02-05T03:08:26.120Z,1.02
2023-02-05T03:09:26.100Z,1.08
2023-02-05T03:10:26.084Z,1.22
2023-02-05T03:11:26.094Z,1.14
2023-02-05T03:12:26.043Z,1.12
2023-02-05T03:13:26.026Z,1.08
2023-02-05T03:14:26.016Z,0.99
2023-02-05T03:15:26.009Z,1.08
2023-02-05T03:16:26.037Z,1.08
2023-02-05T03:17:25.952Z,1.12
2023-02-05T03:18:26.941Z,1.06
2023-02-05T03:19:25.915Z,1.06
2023-02-05T03:20:25.898Z,0.95
2023-02-05T03:21:25.928Z,0.94
2023-02-05T03:22:25.861Z,0.99
2023-02-05T03:23:25.842Z,0.99
2023-02-05T03:24:59.405Z,0.95
2023-02-05T03:25:25.808Z,1.01
2023-02-05T03:26:25.818Z,0.87
2023-02-05T03:27:25.773Z,0.95
2023-02-05T03:28:25.768Z,1.01
2023-02-05T03:29:25.731Z,1.02
2023-02-05T03:30:57.856Z,1.04
2023-02-05T03:31:25.727Z,1.04
2023-02-05T03:32:25.682Z,1.05
2023-02-05T03:33:25.650Z,1.16
2023-02-05T03:34:26.638Z,1.13
2023-02-05T03:35:25.627Z,1.17
2023-02-05T03:36:26.628Z,1.16
2023-02-05T03:37:25.582Z,1.14
2023-02-05T03:38:25.561Z,1.16
2023-02-05T03:39:25.546Z,1.22
2023-02-05T03:40:25.542Z,1.04
2023-02-05T03:41:25.538Z,1.30
2023-02-05T03:42:25.483Z,1.23
2023-02-05T03:43:25.468Z,1.12
2023-02-05T03:44:25.448Z,1.14
2023-02-05T03:45:25.463Z,1.28
2023-02-05T03:46:25.436Z,1.20
2023-02-05T03:47:25.386Z,1.17
2023-02-05T03:48:25.368Z,1.42
2023-02-05T03:49:25.361Z,1.48
2023-02-05T03:50:25.358Z,1.44
2023-02-05T03:51:25.340Z,1.37
2023-02-05T03:52:25.299Z,1.35
2023-02-05T03:53:25.278Z,1.52
2023-02-05T03:54:25.262Z,1.49
2023-02-05T03:55:25.237Z,1.52
2023-02-05T03:56:25.272Z,1.58
2023-02-05T03:57:25.203Z,1.58
2023-02-05T03:58:25.178Z,1.56
2023-02-05T03:59:25.159Z,1.50
2023-02-05T04:00:25.150Z,1.40
2023-02-05T04:01:25.190Z,1.30
2023-02-05T04:02:25.123Z,1.30
2023-02-05T04:03:25.095Z,1.37
2023-02-05T04:04:25.078Z,1.35
2023-02-05T04:05:25.049Z,1.14
2023-02-05T04:06:25.061Z,1.26
2023-02-05T04:07:25.014Z,1.30
2023-02-05T04:08:24.998Z,1.22
2023-02-05T04:09:24.975Z,1.35
2023-02-05T04:10:24.957Z,1.34
2023-02-05T04:11:24.971Z,1.44
2023-02-05T04:12:24.922Z,1.35
2023-02-05T04:13:24.900Z,1.31
2023-02-05T04:14:24.881Z,1.30
2023-02-05T04:15:24.862Z,1.35
2023-02-05T04:16:24.930Z,1.35
2023-02-05T04:17:24.826Z,1.28
2023-02-05T04:18:24.807Z,1.42
2023-02-05T04:19:24.791Z,1.38
2023-02-05T04:20:24.775Z,1.30
2023-02-05T04:21:24.793Z,1.31
2023-02-05T04:22:24.741Z,1.40
2023-02-05T04:23:24.720Z,1.34
2023-02-05T04:24:24.692Z,1.35
2023-02-05T04:25:24.675Z,1.35
2023-02-05T04:26:24.709Z,1.37
2023-02-05T04:27:24.645Z,1.35
2023-02-05T04:28:24.631Z,1.35
2023-02-05T04:29:24.666Z,1.42
2023-02-05T04:30:24.591Z,1.42
2023-02-05T04:31:24.627Z,1.50
2023-02-05T04:32:24.567Z,1.60
2023-02-05T04:33:24.540Z,1.68
2023-02-05T04:34:24.516Z,1.66
2023-02-05T04:35:24.500Z,1.55
2023-02-05T04:36:24.516Z,1.59
2023-02-05T04:37:24.468Z,1.67
2023-02-05T04:38:24.452Z,1.68
2023-02-05T04:39:24.429Z,1.70
2023-02-05T04:40:24.422Z,1.80
2023-02-05T04:41:24.422Z,1.78
2023-02-05T04:42:24.382Z,1.66
2023-02-05T04:43:24.359Z,1.76
2023-02-05T04:44:24.349Z,1.73
2023-02-05T04:45:24.322Z,1.77
2023-02-05T04:46:24.336Z,1.81
2023-02-05T04:47:24.289Z,1.70
2023-02-05T04:48:24.269Z,1.68
2023-02-05T04:49:24.258Z,1.60
2023-02-05T04:50:24.232Z,1.68
2023-02-05T04:51:24.245Z,1.68
2023-02-05T04:52:24.198Z,1.74
2023-02-05T04:53:24.182Z,1.81
2023-02-05T04:54:24.161Z,1.78
2023-02-05T04:55:24.143Z,1.81
2023-02-05T04:56:24.152Z,1.78
2023-02-05T04:57:24.107Z,1.78
2023-02-05T04:58:24.092Z,1.71
2023-02-05T04:59:24.068Z,1.74
2023-02-05T05:00:24.055Z,1.73
2023-02-05T05:01:24.081Z,1.73
2023-02-05T05:02:24.041Z,1.73
2023-02-05T05:03:23.998Z,1.66
2023-02-05T05:04:23.975Z,1.66
2023-02-05T05:05:23.955Z,1.68
2023-02-05T05:06:23.975Z,1.67
2023-02-05T05:07:23.928Z,1.68
2023-02-05T05:08:23.909Z,1.68
2023-02-05T05:09:23.898Z,1.76
2023-02-05T05:10:23.874Z,1.68
2023-02-05T05:11:23.874Z,1.85
2023-02-05T05:12:23.828Z,1.71
2023-02-05T05:13:23.808Z,1.68
2023-02-05T05:14:23.794Z,1.68
2023-02-05T05:15:23.771Z,1.87
2023-02-05T05:16:23.780Z,1.92
2023-02-05T05:17:23.740Z,1.85
2023-02-05T05:18:23.720Z,1.78
2023-02-05T05:19:23.701Z,1.78
2023-02-05T05:20:23.683Z,1.92
2023-02-05T05:21:23.703Z,1.80
2023-02-05T05:22:23.652Z,1.89
2023-02-05T05:23:23.630Z,1.81
2023-02-05T05:24:23.609Z,1.94
2023-02-05T05:25:23.588Z,1.99
2023-02-05T05:26:23.598Z,2.02
2023-02-05T05:27:23.556Z,1.95
2023-02-05T05:28:23.534Z,2.15
2023-02-05T05:29:23.517Z,2.06
2023-02-05T05:30:23.514Z,2.14
2023-02-05T05:31:23.555Z,2.04
2023-02-05T05:32:23.473Z,2.00
2023-02-05T05:33:23.462Z,1.94
2023-02-05T05:34:23.423Z,1.99
2023-02-05T05:35:23.408Z,2.00
2023-02-05T05:36:23.414Z,2.00
2023-02-05T05:37:23.373Z,2.06
2023-02-05T05:38:23.347Z,2.11
2023-02-05T05:39:23.330Z,2.04
2023-02-05T05:40:23.311Z,1.89
2023-02-05T05:41:23.322Z,1.97
2023-02-05T05:42:23.278Z,2.00
2023-02-05T05:43:23.252Z,1.99
2023-02-05T05:44:23.248Z,1.95
2023-02-05T05:45:23.215Z,1.97
2023-02-05T05:46:23.275Z,2.02
2023-02-05T05:47:23.183Z,2.08
2023-02-05T05:48:23.166Z,1.87
2023-02-05T05:49:23.150Z,1.91
2023-02-05T05:50:23.126Z,1.97
2023-02-05T05:51:24.150Z,1.92
2023-02-05T05:52:23.094Z,2.08
2023-02-05T05:53:23.073Z,1.99
2023-02-05T05:54:23.045Z,2.00
2023-02-05T05:55:24.036Z,2.02
2023-02-05T05:56:23.098Z,2.07
2023-02-05T05:57:23.004Z,2.14
2023-02-05T05:58:22.969Z,2.15
2023-02-05T05:59:23.960Z,2.13
2023-02-05T06:00:22.941Z,2.17
2023-02-05T06:01:22.974Z,2.13
2023-02-05T06:02:22.941Z,2.10
2023-02-05T06:03:22.889Z,2.14
2023-02-05T06:04:22.908Z,2.17
2023-02-05T06:05:22.850Z,2.07
2023-02-05T06:06:22.834Z,2.18
2023-02-05T06:07:22.840Z,2.13
2023-02-05T06:08:22.793Z,2.17
2023-02-05T06:09:22.777Z,2.18
2023-02-05T06:10:22.759Z,2.14
2023-02-05T06:11:22.740Z,2.15
2023-02-05T06:12:22.745Z,2.17
2023-02-05T06:13:22.706Z,2.22
2023-02-05T06:14:22.684Z,2.20
2023-02-05T06:15:22.665Z,2.10
2023-02-05T06:16:22.668Z,2.18
2023-02-05T06:17:22.661Z,2.15
2023-02-05T06:18:23.820Z,2.26
2023-02-05T06:19:23.597Z,2.24
2023-02-05T06:20:22.577Z,2.18
2023-02-05T06:21:22.564Z,2.14
2023-02-05T06:22:22.574Z,2.15
2023-02-05T06:23:22.524Z,2.15
2023-02-05T06:24:22.509Z,2.29
2023-02-05T06:25:22.489Z,2.15
2023-02-05T06:26:22.467Z,2.24
2023-02-05T06:27:22.477Z,2.17
2023-02-05T06:28:22.436Z,2.25
2023-02-05T06:29:22.415Z,2.15
2023-02-05T06:30:22.409Z,2.20
2023-02-05T06:31:22.482Z,2.26
2023-02-05T06:32:22.395Z,2.18
2023-02-05T06:33:22.355Z,2.18
2023-02-05T06:34:22.329Z,2.10
2023-02-05T06:35:22.318Z,2.14
2023-02-05T06:36:22.295Z,2.15
2023-02-05T06:37:24.942Z,2.13
2023-02-05T06:38:22.258Z,2.18
2023-02-05T06:39:24.925Z,2.02
2023-02-05T06:40:22.409Z,1.92
2023-02-05T06:41:22.201Z,1.91
2023-02-05T06:42:22.215Z,1.78
2023-02-05T06:43:22.168Z,1.78
2023-02-05T06:44:22.158Z,1.78
2023-02-05T06:45:22.130Z,1.76
2023-02-05T06:46:22.935Z,1.77
2023-02-05T06:47:22.120Z,1.85
2023-02-05T06:48:22.077Z,1.84
2023-02-05T06:49:22.055Z,1.78
2023-02-05T06:50:22.036Z,1.92
2023-02-05T06:51:22.025Z,1.94
2023-02-05T06:52:22.028Z,1.85
2023-02-05T06:53:21.983Z,1.85
2023-02-05T06:54:21.964Z,1.85
2023-02-05T06:55:21.943Z,1.87
2023-02-05T06:56:21.925Z,1.91
2023-02-05T06:57:21.937Z,1.91
2023-02-05T06:58:21.891Z,1.95
2023-02-05T06:59:21.874Z,1.87
2023-02-05T07:00:21.851Z,1.94
2023-02-05T07:01:21.861Z,1.97
2023-02-05T07:02:21.881Z,1.89
2023-02-05T07:03:21.796Z,1.84
2023-02-05T07:04:21.781Z,1.88
2023-02-05T07:05:21.765Z,1.91
2023-02-05T07:06:21.745Z,1.87
2023-02-05T07:07:21.755Z,1.88
2023-02-05T07:08:21.726Z,1.85
2023-02-05T07:09:21.696Z,1.80
2023-02-05T07:10:21.677Z,1.73
2023-02-05T07:11:21.655Z,1.80
2023-02-05T07:12:21.664Z,1.84
2023-02-05T07:13:21.625Z,1.80
2023-02-05T07:14:21.603Z,1.67
2023-02-05T07:15:21.586Z,1.63
2023-02-05T07:16:21.623Z,1.63
2023-02-05T07:17:21.579Z,1.73
2023-02-05T07:18:21.560Z,1.77
2023-02-05T07:19:21.515Z,1.74
2023-02-05T07:20:21.501Z,1.78
2023-02-05T07:21:21.482Z,1.81
2023-02-05T07:22:21.460Z,1.88
2023-02-05T07:23:21.466Z,1.88
2023-02-05T07:24:21.419Z,1.85
2023-02-05T07:25:21.403Z,1.80
2023-02-05T07:26:21.383Z,1.81
2023-02-05T07:27:21.393Z,1.81
2023-02-05T07:28:21.342Z,1.85
2023-02-05T07:29:21.326Z,1.77
2023-02-05T07:30:21.308Z,1.71
2023-02-05T07:31:21.390Z,1.78
2023-02-05T07:32:21.302Z,1.70
2023-02-05T07:33:21.255Z,1.63
2023-02-05T07:34:21.242Z,1.70
2023-02-05T07:35:21.220Z,1.77
2023-02-05T07:36:21.199Z,1.68
2023-02-05T07:37:21.560Z,1.81
2023-02-05T07:38:22.163Z,1.74
2023-02-05T07:39:21.141Z,1.80
2023-02-05T07:40:21.123Z,1.80
2023-02-05T07:41:21.104Z,1.81
2023-02-05T07:42:21.111Z,1.94
2023-02-05T07:43:21.064Z,1.73
2023-02-05T07:44:21.049Z,1.80
2023-02-05T07:45:21.024Z,1.74
2023-02-05T07:46:21.035Z,1.87
2023-02-05T07:47:21.428Z,1.97
2023-02-05T07:48:21.227Z,2.06
2023-02-05T07:49:21.376Z,2.25
2023-02-05T07:50:21.118Z,2.14
2023-02-05T07:51:21.011Z,2.10
2023-02-05T07:52:20.918Z,2.17
2023-02-05T07:53:20.945Z,2.15
2023-02-05T07:54:21.021Z,2.29
2023-02-05T07:55:20.984Z,2.26
2023-02-05T07:56:20.817Z,2.22
2023-02-05T07:57:20.830Z,2.32
2023-02-05T07:58:20.804Z,2.26
2023-02-05T07:59:21.842Z,2.25
2023-02-05T08:00:20.911Z,2.31
2023-02-05T08:01:20.915Z,2.32
2023-02-05T08:02:20.734Z,2.25
2023-02-05T08:03:22.516Z,2.14
2023-02-05T08:04:20.777Z,2.36
2023-02-05T08:05:20.654Z,2.28
2023-02-05T08:06:20.637Z,2.31
2023-02-05T08:07:20.640Z,2.26
2023-02-05T08:08:20.595Z,2.22
2023-02-05T08:09:20.577Z,2.26
2023-02-05T08:10:20.559Z,2.35
2023-02-05T08:11:20.548Z,2.22
2023-02-05T08:12:20.555Z,2.26
2023-02-05T08:13:20.510Z,2.33
2023-02-05T08:14:20.493Z,2.26
2023-02-05T08:15:20.470Z,2.32
2023-02-05T08:16:20.529Z,2.20
2023-02-05T08:17:20.462Z,2.28
2023-02-05T08:18:20.416Z,2.18
2023-02-05T08:19:20.393Z,2.22
2023-02-05T08:20:20.375Z,2.26
2023-02-05T08:21:20.356Z,2.24
2023-02-05T08:22:20.371Z,2.24
2023-02-05T08:23:20.318Z,2.24
2023-02-05T08:24:20.300Z,2.14
2023-02-05T08:25:20.284Z,2.22
2023-02-05T08:26:20.270Z,2.14
2023-02-05T08:27:20.288Z,2.18
2023-02-05T08:28:20.567Z,2.17
2023-02-05T08:29:20.212Z,2.11
2023-02-05T08:30:20.193Z,2.11
2023-02-05T08:31:20.266Z,2.08
2023-02-05T08:32:20.203Z,1.94
2023-02-05T08:33:20.150Z,1.92
2023-02-05T08:34:20.992Z,1.95
2023-02-05T08:35:21.108Z,2.04
2023-02-05T08:36:20.088Z,1.95
2023-02-05T08:37:20.100Z,2.02
2023-02-05T08:38:20.046Z,1.92
2023-02-05T08:39:20.030Z,2.00
2023-02-05T08:40:20.014Z,1.94
2023-02-05T08:41:19.993Z,2.02
2023-02-05T08:42:20.005Z,2.07
2023-02-05T08:43:19.960Z,2.02
2023-02-05T08:44:19.966Z,2.02
2023-02-05T08:45:19.933Z,2.13
2023-02-05T08:46:19.902Z,2.08
2023-02-05T08:47:19.892Z,2.14
2023-02-05T08:48:19.901Z,2.11
2023-02-05T08:49:19.850Z,2.13
2023-02-05T08:50:19.832Z,2.08
2023-02-05T08:51:19.817Z,2.15
2023-02-05T08:52:19.794Z,2.25
2023-02-05T08:53:19.804Z,2.26
2023-02-05T08:54:19.760Z,2.13
2023-02-05T08:55:19.776Z,2.22
2023-02-05T08:56:20.356Z,2.22
2023-02-05T08:57:20.706Z,2.14
2023-02-05T08:58:19.713Z,2.20
2023-02-05T08:59:19.669Z,2.18
2023-02-05T09:00:19.648Z,2.20
2023-02-05T09:01:19.703Z,2.17
2023-02-05T09:02:19.614Z,2.22
2023-02-05T09:03:19.618Z,2.26
2023-02-05T09:04:19.606Z,2.33
2023-02-05T09:05:19.556Z,2.28
2023-02-05T09:06:19.539Z,2.33
2023-02-05T09:07:19.526Z,2.39
2023-02-05T09:08:19.528Z,2.50
2023-02-05T09:09:19.489Z,2.47
2023-02-05T09:10:19.470Z,2.46
2023-02-05T09:11:19.450Z,2.47
2023-02-05T09:12:19.445Z,2.51
2023-02-05T09:13:19.439Z,2.43
2023-02-05T09:14:19.393Z,2.44
2023-02-05T09:15:19.375Z,2.53
2023-02-05T09:16:19.392Z,2.54
2023-02-05T09:17:19.341Z,2.57
2023-02-05T09:18:19.364Z,2.57
2023-02-05T09:19:19.301Z,2.51
2023-02-05T09:20:19.286Z,2.49
2023-02-05T09:21:19.269Z,2.54
2023-02-05T09:22:19.250Z,2.49
2023-02-05T09:23:19.270Z,2.47
2023-02-05T09:24:19.229Z,2.38
2023-02-05T09:25:19.217Z,2.32
2023-02-05T09:26:19.206Z,2.46
2023-02-05T09:27:19.166Z,2.29
2023-02-05T09:28:19.201Z,2.36
2023-02-05T09:29:19.120Z,2.44
2023-02-05T09:30:20.113Z,2.39
2023-02-05T09:31:19.193Z,2.39
2023-02-05T09:32:19.702Z,2.44
2023-02-05T09:33:19.107Z,2.38
2023-02-05T09:34:19.034Z,2.36
2023-02-05T09:35:19.013Z,2.36
2023-02-05T09:36:18.995Z,2.32
2023-02-05T09:37:18.977Z,2.28
2023-02-05T09:38:18.988Z,2.35
2023-02-05T09:39:52.348Z,2.35
2023-02-05T09:40:21.807Z,2.46
2023-02-05T09:41:19.906Z,2.43
2023-02-05T09:42:18.909Z,2.46
2023-02-05T09:43:18.897Z,2.49
2023-02-05T09:44:18.851Z,2.50
2023-02-05T09:45:18.859Z,2.62
2023-02-05T09:46:18.886Z,2.61
2023-02-05T09:47:18.914Z,2.49
2023-02-05T09:48:18.843Z,2.56
2023-02-05T09:49:18.882Z,2.50
2023-02-05T09:50:18.744Z,2.54
2023-02-05T09:51:18.724Z,2.68
2023-02-05T09:52:18.706Z,2.50
2023-02-05T09:53:18.712Z,2.56
2023-02-05T09:54:18.665Z,2.50
2023-02-05T09:55:18.687Z,2.61
2023-02-05T09:56:18.632Z,2.75
2023-02-05T09:57:18.608Z,2.69
2023-02-05T09:58:18.613Z,2.71
2023-02-05T09:59:18.588Z,2.80
2023-02-05T10:00:18.594Z,2.77
2023-02-05T10:01:18.561Z,2.82
2023-02-05T10:02:18.556Z,2.89
2023-02-05T10:03:18.550Z,2.75
2023-02-05T10:04:18.568Z,2.79
2023-02-05T10:05:18.504Z,2.86
2023-02-05T10:06:18.442Z,2.79
2023-02-05T10:07:18.423Z,2.75
2023-02-05T10:08:18.434Z,2.87
2023-02-05T10:09:18.392Z,2.85
2023-02-05T10:10:18.368Z,2.87
2023-02-05T10:11:18.350Z,2.85
2023-02-05T10:12:18.338Z,2.87
2023-02-05T10:13:18.342Z,2.93
2023-02-05T10:14:18.295Z,2.79
2023-02-05T10:15:18.278Z,2.89
2023-02-05T10:16:18.299Z,2.87
2023-02-05T10:17:18.249Z,2.92
2023-02-05T10:18:18.269Z,3.03
2023-02-05T10:19:18.205Z,3.08
2023-02-05T10:20:18.207Z,3.13
2023-02-05T10:21:18.170Z,3.21
2023-02-05T10:22:18.163Z,3.11
2023-02-05T10:23:18.156Z,3.21
2023-02-05T10:24:18.111Z,3.21
2023-02-05T10:25:18.094Z,3.14
2023-02-05T10:26:18.075Z,3.11
2023-02-05T10:27:18.057Z,2.97
2023-02-05T10:28:18.130Z,3.01
2023-02-05T10:29:18.024Z,2.95
2023-02-05T10:30:18.003Z,3.00
2023-02-05T10:31:18.059Z,3.03
2023-02-05T10:32:17.966Z,2.92
2023-02-05T10:33:17.976Z,2.98
2023-02-05T10:34:17.939Z,3.16
2023-02-05T10:35:17.913Z,3.18
2023-02-05T10:36:17.899Z,3.28
2023-02-05T10:37:17.884Z,3.26
2023-02-05T10:38:17.888Z,3.32
2023-02-05T10:39:17.840Z,3.31
2023-02-05T10:40:17.820Z,3.36
2023-02-05T10:41:17.835Z,3.44
2023-02-05T10:42:17.784Z,3.50
2023-02-05T10:43:17.766Z,3.50
2023-02-05T10:44:17.751Z,3.50
2023-02-05T10:45:19.198Z,3.50
2023-02-05T10:46:18.751Z,3.63
2023-02-05T10:47:17.692Z,3.53
2023-02-05T10:48:17.670Z,3.56
2023-02-05T10:49:17.652Z,3.63
2023-02-05T10:50:17.630Z,3.44
2023-02-05T10:51:17.643Z,3.34
2023-02-05T10:52:17.597Z,3.47
2023-02-05T10:53:17.607Z,3.31
2023-02-05T10:54:17.568Z,3.19
2023-02-05T10:55:17.541Z,3.14
2023-02-05T10:56:17.539Z,3.28
2023-02-05T10:57:17.512Z,3.16
2023-02-05T10:58:17.517Z,3.34
2023-02-05T10:59:17.470Z,3.36
2023-02-05T11:00:17.476Z,3.42
2023-02-05T11:01:17.488Z,3.42
2023-02-05T11:02:17.407Z,3.45
2023-02-05T11:03:17.423Z,3.56
2023-02-05T11:04:17.376Z,3.45
2023-02-05T11:05:17.361Z,3.48
2023-02-05T11:06:17.340Z,3.50
2023-02-05T11:07:17.318Z,3.28
2023-02-05T11:08:17.338Z,3.23
2023-02-05T11:09:17.281Z,3.22
2023-02-05T11:10:17.271Z,3.29
2023-02-05T11:11:17.268Z,3.34
2023-02-05T11:12:17.221Z,3.42
2023-02-05T11:13:17.237Z,3.45
2023-02-05T11:14:17.183Z,3.58
2023-02-05T11:15:17.164Z,3.55
2023-02-05T11:16:17.147Z,3.58
2023-02-05T11:17:17.138Z,3.56
2023-02-05T11:18:17.137Z,3.55
2023-02-05T11:19:17.090Z,3.48
2023-02-05T11:20:17.069Z,3.55
2023-02-05T11:21:17.049Z,3.56
2023-02-05T11:22:17.029Z,3.76
2023-02-05T11:23:17.039Z,3.76
2023-02-05T11:24:16.988Z,3.73
2023-02-05T11:25:16.991Z,3.83
2023-02-05T11:26:16.955Z,3.70
2023-02-05T11:27:16.969Z,3.70
2023-02-05T11:28:17.015Z,3.76
2023-02-05T11:29:16.927Z,3.76
2023-02-05T11:30:17.811Z,3.84
2023-02-05T11:31:16.916Z,3.77
2023-02-05T11:32:16.908Z,3.80
2023-02-05T11:33:16.824Z,3.87
2023-02-05T11:34:16.836Z,3.87
2023-02-05T11:35:16.785Z,3.77
2023-02-05T11:36:16.776Z,3.81
2023-02-05T11:37:16.751Z,3.83
2023-02-05T11:38:16.730Z,3.74
2023-02-05T11:39:16.742Z,3.70
2023-02-05T11:40:16.769Z,3.77
2023-02-05T11:41:16.679Z,3.73
2023-02-05T11:42:16.669Z,3.83
2023-02-05T11:43:16.639Z,3.74
2023-02-05T11:44:16.651Z,3.66
2023-02-05T11:45:16.599Z,3.65
2023-02-05T11:46:16.670Z,3.76
2023-02-05T11:47:16.567Z,3.68
2023-02-05T11:48:16.548Z,3.68
2023-02-05T11:49:16.553Z,3.70
2023-02-05T11:50:18.701Z,3.73
2023-02-05T11:51:17.496Z,3.70
2023-02-05T11:52:16.481Z,3.80
2023-02-05T11:53:16.554Z,3.66
2023-02-05T11:54:16.468Z,3.70
2023-02-05T11:55:16.420Z,3.76
2023-02-05T11:56:16.400Z,3.88
2023-02-05T11:57:16.380Z,3.86
2023-02-05T11:58:18.491Z,3.81
2023-02-05T11:59:16.375Z,3.91
2023-02-05T12:00:16.400Z,3.96
2023-02-05T12:01:16.307Z,3.88
2023-02-05T12:02:16.294Z,3.83
2023-02-05T12:03:16.349Z,3.98
2023-02-05T12:04:16.281Z,3.92
2023-02-05T12:05:16.236Z,3.87
2023-02-05T12:06:16.216Z,3.81
2023-02-05T12:07:16.198Z,3.84
2023-02-05T12:08:16.179Z,3.86
2023-02-05T12:09:16.186Z,3.84
2023-02-05T12:10:16.198Z,3.81
2023-02-05T12:11:16.139Z,3.87
2023-02-05T12:12:16.101Z,3.78
2023-02-05T12:13:16.086Z,3.84
2023-02-05T12:14:16.097Z,3.83
2023-02-05T12:15:16.050Z,3.83
2023-02-05T12:16:16.101Z,3.68
2023-02-05T12:17:16.013Z,3.69
2023-02-05T12:18:15.997Z,3.80
2023-02-05T12:19:16.010Z,3.76
2023-02-05T12:20:16.005Z,3.92
2023-02-05T12:21:15.940Z,3.83
2023-02-05T12:22:15.922Z,3.95
2023-02-05T12:23:15.927Z,3.87
2023-02-05T12:24:15.913Z,3.96
2023-02-05T12:25:15.861Z,3.92
2023-02-05T12:26:15.837Z,3.86
2023-02-05T12:27:15.823Z,3.96
2023-02-05T12:28:15.845Z,4.02
2023-02-05T12:29:15.813Z,3.92
2023-02-05T12:30:15.847Z,3.87
2023-02-05T12:31:15.831Z,3.81
2023-02-05T12:32:16.728Z,3.66
2023-02-05T12:33:15.705Z,3.56
2023-02-05T12:34:15.724Z,3.65
2023-02-05T12:35:15.677Z,3.68
2023-02-05T12:36:16.214Z,3.73
2023-02-05T12:37:15.633Z,3.78
2023-02-05T12:38:21.182Z,3.98
2023-02-05T12:39:17.631Z,3.92
2023-02-05T12:40:15.576Z,4.04
2023-02-05T12:41:15.561Z,4.08
2023-02-05T12:42:15.546Z,4.13
2023-02-05T12:43:15.528Z,4.16
2023-02-05T12:44:15.536Z,4.40
2023-02-05T12:45:15.483Z,4.49
2023-02-05T12:46:15.538Z,4.52
2023-02-05T12:47:15.445Z,4.70
2023-02-05T12:48:15.424Z,4.89
2023-02-05T12:49:15.440Z,4.80
2023-02-05T12:50:15.390Z,4.99
2023-02-05T12:51:15.369Z,4.84
2023-02-05T12:52:15.352Z,4.71
2023-02-05T12:53:15.331Z,4.87
2023-02-05T12:54:15.342Z,4.89
2023-02-05T12:55:15.306Z,4.86
2023-02-05T12:56:15.280Z,4.68
2023-02-05T12:57:15.257Z,4.78
2023-02-05T12:58:15.243Z,4.74
2023-02-05T12:59:15.249Z,4.75
2023-02-05T13:00:15.206Z,4.52
2023-02-05T13:01:15.194Z,4.49
2023-02-05T13:02:15.170Z,4.50
2023-02-05T13:03:15.804Z,4.38
2023-02-05T13:04:15.201Z,4.04
2023-02-05T13:05:15.143Z,3.81
2023-02-05T13:06:15.092Z,3.77
2023-02-05T13:07:15.078Z,3.87
2023-02-05T13:08:15.059Z,4.08
2023-02-05T13:09:15.072Z,4.04
2023-02-05T13:10:15.023Z,4.13
2023-02-05T13:11:15.012Z,4.04
2023-02-05T13:12:14.990Z,4.01
2023-02-05T13:13:14.974Z,3.88
2023-02-05T13:14:14.980Z,3.87
2023-02-05T13:15:14.934Z,3.70
2023-02-05T13:16:14.959Z,3.69
2023-02-05T13:17:14.898Z,3.66
2023-02-05T13:18:14.878Z,3.87